createdAt,value
2022-09-17T00:00:10.991Z,999.86
2022-09-17T00:05:59.036Z,999.83
2022-09-17T00:11:42.871Z,1000
2022-09-17T00:17:26.197Z,1000.01
2022-09-17T00:23:09.590Z,1000.14
2022-09-17T00:28:54.527Z,1000.12
2022-09-17T00:34:38.008Z,1000.09
2022-09-17T00:40:21.992Z,1000.07
2022-09-17T00:46:07.434Z,1000.13
2022-09-17T00:52:00.915Z,1000.11
2022-09-17T00:57:44.859Z,1000.11
2022-09-17T01:03:28.096Z,1000.02
2022-09-17T01:09:22.651Z,999.98
2022-09-17T01:15:11.226Z,1000.09
2022-09-17T01:21:06.885Z,1000.22
2022-09-17T01:26:59.112Z,1000.13
2022-09-17T01:32:45.204Z,1000.21
2022-09-17T01:38:32.137Z,1000.26
2022-09-17T01:44:17.718Z,1000.39
2022-09-17T01:50:03.515Z,1000.36
2022-09-17T01:55:48.052Z,1000.36
2022-09-17T02:01:33.825Z,1000.39
2022-09-17T02:07:18.976Z,1000.48
2022-09-17T02:13:04.403Z,1000.41
2022-09-17T02:18:50.750Z,1000.35
2022-09-17T02:24:38.293Z,1000.37
2022-09-17T02:30:21.791Z,1000.36
2022-09-17T02:36:05.879Z,1000.5
2022-09-17T02:41:52.730Z,1000.41
2022-09-17T02:47:46.127Z,1000.39
2022-09-17T02:53:35.468Z,1000.36
2022-09-17T02:59:22.411Z,1000.33
2022-09-17T03:05:07.327Z,1000.35
2022-09-17T03:10:50.647Z,1000.28
2022-09-17T03:16:34.091Z,1000.43
2022-09-17T03:22:17.699Z,1000.49
2022-09-17T03:28:01.091Z,1000.43
2022-09-17T03:33:44.564Z,1000.36
2022-09-17T03:39:27.725Z,1000.31
2022-09-17T03:45:11.899Z,1000.28
2022-09-17T03:50:55.239Z,1000.32
2022-09-17T03:56:38.640Z,1000.3
2022-09-17T04:02:21.893Z,1000.37
2022-09-17T04:08:05.727Z,1000.39
2022-09-17T04:13:49.310Z,1000.35
2022-09-17T04:19:32.758Z,1000.34
2022-09-17T04:25:17.104Z,1000.34
2022-09-17T04:31:01.362Z,1000.41
2022-09-17T04:36:44.975Z,1000.29
2022-09-17T04:42:28.130Z,1000.43
2022-09-17T04:48:11.683Z,1000.45
2022-09-17T04:53:55.175Z,1000.58
2022-09-17T04:59:38.583Z,1000.59
2022-09-17T05:05:27.595Z,1000.65
2022-09-17T05:11:11.229Z,1000.68
2022-09-17T05:16:54.717Z,1000.7
2022-09-17T05:22:40.765Z,1000.59
2022-09-17T05:28:24.199Z,1000.65
2022-09-17T05:34:07.562Z,1000.67
2022-09-17T05:39:50.796Z,1000.71
2022-09-17T05:45:35.118Z,1000.67
2022-09-17T05:51:18.466Z,1000.82
2022-09-17T05:57:01.944Z,1000.84
2022-09-17T06:02:45.367Z,1000.98
2022-09-17T06:08:30.329Z,1000.97
2022-09-17T06:14:13.971Z,1000.99
2022-09-17T06:19:57.230Z,1001.06
2022-09-17T06:25:40.438Z,1001.1
2022-09-17T06:31:23.911Z,1001.09
2022-09-17T06:37:07.290Z,1001.22
2022-09-17T06:42:50.556Z,1001.26
2022-09-17T06:48:34.730Z,1001.29
2022-09-17T06:54:19.058Z,1001.34
2022-09-17T07:00:02.931Z,1001.41
2022-09-17T07:05:46.075Z,1001.4
2022-09-17T07:11:29.898Z,1001.48
2022-09-17T07:17:13.211Z,1001.45
2022-09-17T07:22:59.707Z,1001.39
2022-09-17T07:28:43.631Z,1001.35
2022-09-17T07:34:32.791Z,1001.37
2022-09-17T07:40:16.295Z,1001.43
2022-09-17T07:46:00.116Z,1001.45
2022-09-17T07:51:43.534Z,1001.48
2022-09-17T07:57:27.107Z,1001.49
2022-09-17T08:03:10.867Z,1001.53
2022-09-17T08:08:54.183Z,1001.56
2022-09-17T08:14:37.528Z,1001.53
2022-09-17T08:20:21.053Z,1001.68
2022-09-17T08:26:05.505Z,1001.59
2022-09-17T08:31:48.707Z,1001.52
2022-09-17T08:37:32.559Z,1001.53
2022-09-17T08:43:18.330Z,1001.49
2022-09-17T08:49:06.541Z,1001.54
2022-09-17T08:54:54.771Z,1001.66
2022-09-17T09:00:41.279Z,1001.6
2022-09-17T09:06:28.216Z,1001.62
2022-09-17T09:12:13.505Z,1001.72
2022-09-17T09:17:57.978Z,1001.81
2022-09-17T09:23:45.390Z,1001.83
2022-09-17T09:29:33.789Z,1001.9
2022-09-17T09:35:19.443Z,1001.96
2022-09-17T09:41:04.220Z,1002.09
2022-09-17T09:46:57.848Z,1001.98
2022-09-17T09:52:48.766Z,1001.99
2022-09-17T09:58:35.682Z,1001.93
2022-09-17T10:04:20.926Z,1001.99
2022-09-17T10:10:10.034Z,1002
2022-09-17T10:15:53.467Z,1001.97
2022-09-17T10:21:37.616Z,1002.02
2022-09-17T10:27:21.858Z,1001.99
2022-09-17T10:33:19.243Z,1001.95
2022-09-17T10:39:07.641Z,1001.86
2022-09-17T10:44:55.974Z,1001.87
2022-09-17T10:50:39.206Z,1001.97
2022-09-17T10:56:26.999Z,1001.98
2022-09-17T11:02:16.632Z,1001.9
2022-09-17T11:08:03.314Z,1001.92
2022-09-17T11:13:51.574Z,1001.93
2022-09-17T11:19:40.658Z,1001.94
2022-09-17T11:25:29.178Z,1001.99
2022-09-17T11:31:25.518Z,1001.94
2022-09-17T11:37:11.183Z,1001.89
2022-09-17T11:42:56.184Z,1001.81
2022-09-17T11:48:44.094Z,1001.89
2022-09-17T11:54:29.748Z,1001.89
2022-09-17T12:00:19.380Z,1001.87
2022-09-17T12:06:06.497Z,1001.99
2022-09-17T12:11:53.439Z,1001.91
2022-09-17T12:17:39.814Z,1001.89
2022-09-17T12:23:27.622Z,1001.83
2022-09-17T12:29:17.258Z,1001.83
2022-09-17T12:35:04.094Z,1001.7
2022-09-17T12:40:54.505Z,1001.7
2022-09-17T12:46:45.023Z,1001.81
2022-09-17T12:52:36.916Z,1001.7
2022-09-17T12:58:28.882Z,1001.74
2022-09-17T13:04:26.641Z,1001.72
2022-09-17T13:10:40.206Z,1001.7
2022-09-17T13:16:25.984Z,1001.63
2022-09-17T13:22:14.424Z,1001.53
2022-09-17T13:28:09.398Z,1001.52
2022-09-17T13:33:53.887Z,1001.49
2022-09-17T13:39:41.487Z,1001.36
2022-09-17T13:45:25.780Z,1001.35
2022-09-17T13:51:20.051Z,1001.4
2022-09-17T13:57:12.258Z,1001.33
2022-09-17T14:02:55.674Z,1001.33
2022-09-17T14:08:48.220Z,1001.41
2022-09-17T14:14:43.448Z,1001.47
2022-09-17T14:20:27.006Z,1001.56
2022-09-17T14:26:13.112Z,1001.72
2022-09-17T14:31:56.427Z,1001.78
2022-09-17T14:37:40.718Z,1001.87
2022-09-17T14:43:29.406Z,1001.91
2022-09-17T14:49:20.900Z,1001.88
2022-09-17T14:55:22.726Z,1001.91
2022-09-17T15:01:06.101Z,1001.85
2022-09-17T15:06:49.543Z,1001.87
2022-09-17T15:12:32.796Z,1001.94
2022-09-17T15:18:17.291Z,1001.89
2022-09-17T15:24:06.022Z,1001.84
2022-09-17T15:29:51.814Z,1001.97
2022-09-17T15:35:35.146Z,1002
2022-09-17T15:41:24.444Z,1002.05
2022-09-17T15:47:18.988Z,1002.05
2022-09-17T15:53:22.566Z,1001.91
2022-09-17T15:59:07.183Z,1001.88
2022-09-17T16:04:50.524Z,1001.87
2022-09-17T16:10:33.678Z,1001.88
2022-09-17T16:16:18.709Z,1001.98
2022-09-17T16:22:03.098Z,1002.02
2022-09-17T16:27:51.694Z,1002.1
2022-09-17T16:33:35.045Z,1002.24
2022-09-17T16:39:18.338Z,1002.21
2022-09-17T16:45:01.543Z,1002.22
2022-09-17T16:50:44.679Z,1002.23
2022-09-17T16:56:27.967Z,1002.17
2022-09-17T17:02:12.065Z,1002.26
2022-09-17T17:07:55.957Z,1002.25
2022-09-17T17:13:39.112Z,1002.31
2022-09-17T17:19:22.521Z,1002.3
2022-09-17T17:25:06.482Z,1002.33
2022-09-17T17:30:51.458Z,1002.35
2022-09-17T17:36:34.900Z,1002.33
2022-09-17T17:42:18.096Z,1002.4
2022-09-17T17:48:01.829Z,1002.67
2022-09-17T17:53:45.837Z,1002.6
2022-09-17T17:59:28.984Z,1002.5
2022-09-17T18:05:13.367Z,1002.52
2022-09-17T18:10:57.905Z,1002.58
2022-09-17T18:16:42.221Z,1002.71
2022-09-17T18:22:25.421Z,1002.74
2022-09-17T18:28:08.849Z,1002.74
2022-09-17T18:33:55.403Z,1002.75
2022-09-17T18:39:59.754Z,1002.85
2022-09-17T18:45:41.343Z,1002.97
2022-09-17T18:51:25.181Z,1002.98
2022-09-17T18:57:08.470Z,1002.97
2022-09-17T19:02:51.844Z,1003.07
2022-09-17T19:08:35.223Z,1003.06
2022-09-17T19:14:18.428Z,1003.12
2022-09-17T19:20:01.874Z,1003.09
2022-09-17T19:25:45.126Z,1003.05
2022-09-17T19:31:28.838Z,1003.02
2022-09-17T19:37:12.195Z,1003.02
2022-09-17T19:42:58.419Z,1003.01
2022-09-17T19:48:43.695Z,1003.06
2022-09-17T19:54:26.819Z,1003.01
2022-09-17T20:00:11.015Z,1002.98
2022-09-17T20:05:58.379Z,1002.94
2022-09-17T20:11:41.735Z,1002.9
2022-09-17T20:17:24.830Z,1002.91
2022-09-17T20:23:08.188Z,1002.99
2022-09-17T20:28:52.146Z,1003.03
2022-09-17T20:34:35.599Z,1003.04
2022-09-17T20:40:19.184Z,1003.04
2022-09-17T20:46:03.275Z,1003.09
2022-09-17T20:51:46.648Z,1003.1
2022-09-17T20:57:30.791Z,1003.05
2022-09-17T21:03:14.181Z,1003
2022-09-17T21:08:58.144Z,1003.01
2022-09-17T21:14:41.356Z,1003.03
2022-09-17T21:20:24.839Z,1003.12
2022-09-17T21:26:08.926Z,1003.23
2022-09-17T21:31:51.931Z,1003.13
2022-09-17T21:37:35.348Z,1003.09
2022-09-17T21:43:18.607Z,1003.1
2022-09-17T21:49:02.460Z,1003.13
2022-09-17T21:54:45.832Z,1003.11
2022-09-17T22:00:29.127Z,1003.21
2022-09-17T22:06:13.623Z,1003.24
2022-09-17T22:11:57.257Z,1003.18
2022-09-17T22:17:40.731Z,1003.16
2022-09-17T22:23:24.409Z,1003.2
2022-09-17T22:29:08.531Z,1003.22
2022-09-17T22:34:51.725Z,1003.19
2022-09-17T22:40:36.164Z,1003.23
2022-09-17T22:46:21.130Z,1003.26
2022-09-17T22:52:04.787Z,1003.22
2022-09-17T22:57:53.911Z,1003.2
2022-09-17T23:03:37.392Z,1003.1
2022-09-17T23:09:20.897Z,1003.12
2022-09-17T23:15:04.378Z,1003.07
2022-09-17T23:20:52.612Z,1003.02
2022-09-17T23:26:36.058Z,1003.01
2022-09-17T23:32:21.894Z,1003.07
2022-09-17T23:38:05.770Z,1003.16
2022-09-17T23:43:50.016Z,1003.14
2022-09-17T23:49:34.478Z,1003.12
2022-09-17T23:55:17.999Z,1003.1
